Mikesell, Jeff
United StatesManBorn 19601997 – 2026Runner id 36152
Events
140
1997 – 2026
Best pace
10.601
km/h · 2000
Best finish
7th
of 176 · 2025
Distance raced
17,041
km · splits not double-counted
Pace over time
km/h · higher is faster
Pace over time: 140 races from 1997 to 2026, ranging from 2.08 to 11.15 kilometres per hour, where higher is faster. A second, age-graded series is drawn above it; the gap between the two is the age credit.
- Actual pace
- Age-graded pace
Results
| Date | Event | Distance | Result | Pace km/h | Placing |
|---|---|---|---|---|---|
| 1997-09-27 | Cle Elum Ridge 50kUnited States | 50km | 5:55:01 h | 8.450 | 17/111 |
| 1998-07-25 | 55km | 6:28:31 h | 8.494 | 24/79 | |
| 1999-09-05 | Buffalo Soldier 24 Hour RunUnited States | 24h | 52.030 km | 2.168 | 8/8 |
| 1999-09-25 | 100mi | 32:51:49 h | 4.897 | 94/95 | |
| 2000-03-18 | 24h | 149.668 km | 6.236 | 5/32 | |
| 2000-04-09 | Mt. Si 50 Miles Ultra RunUnited States | 56mi | 8:30:05 h | 10.601 | 13/26 |
| 2000-08-26 | 100mi | 30:40:00 h | 5.248 | 24/28 | |
| 2000-09-09 | McKenzie River 50 km Trail RunUnited States | 50km | 5:44:22 h | 8.712 | 54/79 |
| 2001-01-13 | Bridle Trails Winter Running FestivalUnited States | 50km | 5:34:10 h | 8.978 | 10/33 |
| 2001-03-17 | 24h | 107.826 km | 4.493 | 14/31 | |
| 2001-05-25 | Sri Chinmoy 24-Hour Track Run SeattleUnited States | 24h | 161.600 km | 6.733 | 4/12 |
| 2002-03-30 | Baker Lake 50K Ultra Trail RunUnited States | 50km | 6:48:40 h | 7.341 | 16/47 |
| 2002-04-14 | Mt. Si 50 Miles Ultra RunUnited States | 50mi | 8:18:31 h | 9.685 | 9/24 |
| 2002-08-24 | 100mi | 27:21:00 h | 5.884 | 14/40 | |
| 2003-03-22 | 24h | 162.543 km | 6.773 | 5/47 | |
| 2003-04-27 | Mt. Si 50 Miles Ultra RunUnited States | 50mi | 9:08:27 h | 8.803 | 18/27 |
| 2003-05-10 | 100mi | 35:33:20 h | 4.526 | 69/71 | |
| 2003-08-02 | 50mi | 11:02:41 h | 7.286 | 104/132 | |
| 2003-08-23 | 100mi | 29:36:00 h | 5.437 | 28/41 | |
| 2004-04-04 | 50mi | 8:34:59 h | 9.375 | 17/37 | |
| 2004-06-18 | 100mi | 31:45:14 h | 5.068 | 25/40 | |
| 2004-08-28 | 100mi | 30:54:00 h | 5.208 | 40/50 | |
| 2004-09-18 | Cle Elum Ridge 50kUnited States | 50km | 6:59:35 h | 7.150 | 33/97 |
| 2005-03-19 | 24h | 50.050 km | 2.085 | 27/38 | |
| 2005-04-17 | 50mi | 9:20:55 h | 8.607 | 28/38 | |
| 2005-08-27 | 100mi | 31:30:00 h | 5.109 | 68/70 | |
| 2006-04-23 | 50mi | 9:03:29 h | 8.883 | 28/48 | |
| 2006-05-20 | Watershed Preserve 12 Hr Trail RaceUnited States | 12h | 51.901 km | 4.325 | 22/30 |
| 2006-08-26 | 100mi | 31:16:00 h | 5.147 | 41/43 | |
| 2007-04-22 | 50mi | 8:36:40 h | 9.345 | 22/54 | |
| 2007-05-19 | Watershed Preserve 12 Hr Trail RaceUnited States | 12h | 51.901 km | 4.325 | 45/56 |
| 2007-06-09 | Lake Youngs UltraUnited States | 28.8mi | 4:30:00 h | 10.300 | 12/62 |
| 2008-03-15 | Pacific Rim One DayUnited States | 24h | 50.000 km | 2.083 | 34/43 |
| 2008-04-13 | 50mi | 9:27:02 h | 8.515 | 38/50 | |
| 2008-05-17 | Watershed Preserve 12 Hr Trail RaceUnited States | 12h | 51.901 km | 4.325 | 51/53 |
| 2008-05-31 | The 20th Century 100K Trail RunUnited States | 100km | 12:12:40 h | 8.189 | 8/15 |
| 2008-08-23 | 100mi | 30:54:08 h | 5.208 | 63/77 | |
| 2009-04-19 | 50km | 5:14:13 h | 9.548 | 28/66 | |
| 2009-05-16 | Watershed Preserve 12 Hr Trail RaceUnited States | 12h | 51.901 km | 4.325 | 47/66 |
| 2010-09-18 | 50km | 7:35:43 h | 6.583 | 63/97 | |
| 2011-03-11 | 50km | 7:32:38 h | 6.628 | 90/125 | |
| 2011-08-13 | 50mi | 13:55:04 h | 5.782 | 8/9 | |
| 2011-12-10 | 50km | 6:16:40 h | 7.965 | 35/63 | |
| 2012-03-25 | 50km | 6:09:28 h | 8.120 | 123/211 | |
| 2012-04-21 | 50km | 8:33:29 h | 5.842 | 59/89 | |
| 2012-05-20 | 50mi | 9:40:29 h | 8.317 | 36/57 | |
| 2012-07-28 | 50mi | 10:37:38 h | 7.572 | 141/275 | |
| 2012-08-11 | 60km | 9:27:13 h | 6.347 | 18/35 | |
| 2013-02-02 | 50km | 7:27:57 h | 6.697 | 143/215 | |
| 2013-04-21 | 50km | 7:42:39 h | 6.484 | 55/94 | |
| 2013-05-19 | 50mi | 9:50:29 h | 8.176 | 41/78 | |
| 2013-06-15 | 50mi | 9:45:15 h | 8.250 | 11/25 | |
| 2013-07-27 | 50mi | 10:29:51 h | 7.665 | 114/286 | |
| 2013-08-24 | 100mi | 28:00:46 h | 5.745 | 60/117 | |
| 2013-09-27 | 100mi | 31:17:00 h | 5.144 | 88/174 | |
| 2014-03-15 | Pacific Rim One DayUnited States | 24h | 51.499 km | 2.146 | 35/41 |
| 2014-04-20 | 50km | 7:54:16 h | 6.326 | 59/107 | |
| 2014-05-18 | 50mi | 10:08:54 h | 7.929 | 67/106 | |
| 2014-06-07 | 50mi | 11:22:30 h | 7.074 | 13/18 | |
| 2016-11-12 | 50km | 7:08:02 h | 7.009 | 48/106 | |
| 2017-04-29 | 50mi | 12:09:00 h | 6.623 | 90/125 | |
| 2017-05-27 | 50km | 6:32:52 h | 7.636 | 9/25 | |
| 2017-06-24 | 100mi | 31:46:26 h | 5.065 | 41/51 | |
| 2017-09-09 | 50km | 8:38:37 h | 5.785 | 47/67 | |
| 2018-08-04 | Kanawha Trace Trail RunsUnited States | 50km | 7:42:37 h | 6.485 | 41/84 |
| 2018-08-25 | 50mi | 12:30:07 h | 6.436 | 34/48 | |
| 2018-10-06 | 100mi | 29:02:13 h | 5.542 | 66/83 | |
| 2019-03-02 | 40mi | 9:44:31 h | 6.608 | 46/54 | |
| 2019-04-06 | 100mi | 28:54:17 h | 5.568 | 3/5 | |
| 2019-08-03 | 50km | 7:27:33 h | 6.703 | 33/68 | |
| 2019-12-14 | 100mi | 28:12:17 h | 5.706 | 21/30 | |
| 2020-03-06 | 35h | 171.556 km | 4.902 | 1/16 | |
| 2020-09-20 | 100mi | 30:43:51 h | 5.237 | 60/72 | |
| 2020-11-07 | 100mi | 30:37:06 h | 5.256 | 110/139 | |
| 2021-04-10 | 50km | 6:59:50 h | 7.146 | 62/116 | |
| 2021-06-19 | Mohican Trail 100 MileUnited States | 100mi | 34:04:24 h | 4.723 | 86/103 |
| 2022-02-19 | 50km | 7:53:11 h | 6.340 | 154/197 | |
| 2022-03-26 | 100mi | 30:22:41 h | 5.298 | 15/33 | |
| 2022-04-23 | Big Turtle 50 KmUnited States | 50km | 8:47:38 h | 5.686 | 56/89 |
| 2022-06-25 | 30h | 162.870 km | 5.429 | 8/43 | |
| 2022-08-06 | 50km | 8:32:55 h | 5.849 | 30/49 | |
| 2022-08-13 | 100mi | 29:00:32 h | 5.548 | 16/20 | |
| 2022-12-03 | 100mi | 28:02:04 h | 5.741 | 83/108 | |
| 2023-01-14 | 100mi | 26:49:03 h | 6.001 | 53/110 | |
| 2023-03-18 | 100mi | 27:22:02 h | 5.881 | 28/46 | |
| 2023-05-06 | 12h | 50.694 km | 4.225 | 14/21 | |
| 2023-06-03 | 100mi | 27:38:26 h | 5.822 | 11/14 | |
| 2023-07-07 | 100mi | 29:47:11 h | 5.403 | 6/23 | |
| 2023-08-19 | BAD DAWG 50 Mile Ultra Endurance RunUnited States | 50mi | 13:44:00 h | 5.859 | 6/10 |
| 2023-09-08 | Run Woodstock - 100 Mile Hallucination RunUnited States | 100mi | 27:48:30 h | 5.787 | 58/96 |
| 2023-10-14 | 100mi | 37:07:46 h | 4.334 | 33/37 | |
| 2023-11-04 | 100mi | 30:52:19 h | 5.213 | 14/20 | |
| 2023-11-18 | 100mi | 30:21:19 h | 5.302 | 15/22 | |
| 2024-01-13 | 100mi | 27:44:58 h | 5.800 | 65/145 | |
| 2024-02-17 | 100mi | 30:48:03 h | 5.225 | 8/10 | |
| 2024-03-16 | 100mi | 33:13:24 h | 4.844 | 29/40 | |
| 2024-04-06 | 100mi | 29:39:00 h | 5.428 | 7/27 | |
| 2024-04-19 | 34h | 160.934 km | 4.733 | 13/159 | |
| 2024-05-11 | 100mi | 30:50:00 h | 5.219 | 26/44 | |
| 2024-05-24 | 100mi | 33:14:00 h | 4.843 | 5/18 | |
| 2024-06-08 | 100mi | 28:47:12 h | 5.591 | 122/151 | |
| 2024-06-29 | 33h | 160.934 km | 4.877 | 6/43 | |
| 2024-07-12 | 72h | 241.570 km | 3.355 | 13/68 | |
| 2024-07-27 | 100mi | 28:50:03 h | 5.581 | 118/163 | |
| 2024-08-16 | 100mi | 28:20:41 h | 5.678 | 31/49 | |
| 2024-09-07 | Run Woodstock - 100 Mile Hallucination RunUnited States | 100mi | 27:52:27 h | 5.774 | 62/105 |
| 2024-10-12 | 100mi | 27:41:13 h | 5.813 | 84/128 | |
| 2024-10-25 | Cactus Rose 100 MileUnited States | 100mi | 37:58:18 h | 4.238 | 14/23 |
| 2024-11-08 | 100mi | 27:40:16 h | 5.816 | 38/101 | |
| 2024-11-23 | 100mi | 31:23:16 h | 5.127 | 13/22 | |
| 2024-12-31 | 100mi | 29:24:01 h | 5.474 | 8/18 | |
| 2025-01-17 | 34h | 163.348 km | 4.804 | 7/176 | |
| 2025-02-28 | 100mi | 28:26:39 h | 5.658 | 28/32 | |
| 2025-03-07 | 35h | 174.840 km | 4.995 | 2/17 | |
| 2025-03-29 | 100mi | 27:12:36 h | 5.915 | 5/12 | |
| 2025-04-12 | 100mi | 24:47:00 h | 6.494 | 18/45 | |
| 2025-04-26 | 30h | 165.054 km | 5.502 | 3/25 | |
| 2025-05-16 | 48h | 177.027 km | 3.688 | 10/57 | |
| 2025-05-30 | 48h | 213.704 km | 4.452 | 3/36 | |
| 2025-06-28 | 33h | 166.084 km | 5.033 | 2/32 | |
| 2025-07-11 | 100mi | 32:40:47 h | 4.925 | 10/21 | |
| 2025-08-02 | 100mi | 28:02:39 h | 5.739 | 33/39 | |
| 2025-08-23 | 100mi | 34:50:42 h | 4.619 | 16/26 | |
| 2025-08-30 | 100mi | 30:55:30 h | 5.204 | 16/19 | |
| 2025-09-13 | 100mi | 30:59:41 h | 5.192 | 9/15 | |
| 2025-09-26 | 100mi | 26:11:46 h | 6.143 | 98/160 | |
| 2025-10-18 | 30h | 160.960 km | 5.365 | 61/342 | |
| 2025-11-08 | 100mi | 27:29:31 h | 5.854 | 142/172 | |
| 2025-11-22 | 100mi | 28:29:08 h | 5.650 | 19/29 | |
| 2025-12-30 | 100mi | 30:15:55 h | 5.317 | 13/35 | |
| 2026-01-17 | 100mi | 26:46:32 h | 6.010 | 86/185 | |
| 2026-02-07 | 100mi | 29:16:27 h | 5.497 | 190/235 | |
| 2026-03-06 | 100mi | 29:02:22 h | 5.542 | 16/18 | |
| 2026-04-03 | The Country Mile 48 Hour RaceUnited States | 48h | 160.944 km | 3.353 | 35/236 |
| 2026-04-11 | 100mi | 27:17:53 h | 5.895 | 39/61 | |
| 2026-05-30 | 100mi | 33:45:47 h | 4.767 | 63/76 | |
| 2026-06-27 | 33h | 160.934 km | 4.877 | 4/39 | |
| 2026-07-10 | 48h | 161.750 km | 3.370 | 20/70 | |
| 2026-08-01 | 100mi | 29:04:18 h | 5.536 | 30/33 | |
| 2026-08-15 | 100mi | 33:42:14 h | 4.775 | 17/22 |